createdAt,value
2023-04-17T00:03:48.546Z,26.91
2023-04-17T00:07:48.843Z,26.89
2023-04-17T00:11:48.808Z,26.93
2023-04-17T00:15:49.317Z,26.91
2023-04-17T00:19:49.289Z,26.89
2023-04-17T00:23:49.132Z,26.92
2023-04-17T00:27:49.338Z,26.93
2023-04-17T00:31:49.827Z,26.91
2023-04-17T00:35:49.801Z,26.93
2023-04-17T00:39:49.592Z,26.96
2023-04-17T00:43:49.800Z,26.98
2023-04-17T00:47:49.929Z,26.93
2023-04-17T00:51:50.325Z,26.96
2023-04-17T00:55:50.316Z,26.98
2023-04-17T00:59:50.168Z,27.02
2023-04-17T01:03:50.453Z,27.02
2023-04-17T01:07:50.855Z,27.01
2023-04-17T01:11:50.560Z,27.04
2023-04-17T01:15:50.828Z,27.00
2023-04-17T01:19:50.786Z,27.03
2023-04-17T01:23:50.904Z,27.03
2023-04-17T01:27:51.370Z,26.95
2023-04-17T01:31:51.340Z,27.00
2023-04-17T01:35:51.324Z,27.01
2023-04-17T01:39:51.395Z,27.01
2023-04-17T01:43:51.506Z,27.04
2023-04-17T01:47:51.924Z,27.03
2023-04-17T01:51:51.774Z,26.98
2023-04-17T01:55:52.387Z,27.00
2023-04-17T01:59:52.005Z,27.04
2023-04-17T02:03:52.195Z,27.04
2023-04-17T02:07:52.362Z,27.09
2023-04-17T02:11:52.351Z,27.03
2023-04-17T02:15:52.913Z,27.04
2023-04-17T02:19:52.672Z,27.00
2023-04-17T02:23:52.859Z,26.99
2023-04-17T02:27:53.352Z,27.01
2023-04-17T02:31:53.411Z,26.98
2023-04-17T02:35:53.083Z,27.00
2023-04-17T02:39:53.370Z,26.96
2023-04-17T02:43:53.335Z,27.01
2023-04-17T02:47:53.921Z,26.97
2023-04-17T02:51:53.882Z,26.98
2023-04-17T02:55:53.697Z,26.95
2023-04-17T02:59:53.864Z,26.98
2023-04-17T03:03:54.088Z,26.99
2023-04-17T03:07:54.393Z,26.98
2023-04-17T03:11:54.216Z,26.98
2023-04-17T03:15:54.351Z,27.03
2023-04-17T03:19:54.470Z,26.95
2023-04-17T03:23:54.917Z,26.93
2023-04-17T03:27:54.742Z,26.96
2023-04-17T03:31:54.889Z,26.99
2023-04-17T03:35:54.972Z,26.93
2023-04-17T03:39:55.383Z,27.00
2023-04-17T03:43:55.265Z,26.95
2023-04-17T03:47:55.403Z,26.99
2023-04-17T03:51:55.504Z,26.95
2023-04-17T03:55:55.591Z,26.91
2023-04-17T03:59:55.897Z,26.95
2023-04-17T04:03:56.011Z,26.91
2023-04-17T04:07:56.376Z,26.89
2023-04-17T04:11:56.111Z,26.95
2023-04-17T04:15:56.207Z,26.91
2023-04-17T04:19:56.433Z,26.96
2023-04-17T04:23:56.445Z,26.93
2023-04-17T04:27:56.904Z,26.92
2023-04-17T04:31:56.722Z,26.91
2023-04-17T04:35:56.945Z,26.92
2023-04-17T04:39:57.424Z,26.89
2023-04-17T04:43:57.505Z,26.92
2023-04-17T04:47:57.442Z,26.92
2023-04-17T04:51:57.357Z,26.88
2023-04-17T04:55:57.908Z,26.89
2023-04-17T04:59:58.411Z,26.92
2023-04-17T05:03:57.947Z,26.95
2023-04-17T05:07:57.920Z,27.43
2023-04-17T05:11:58.013Z,28.17
2023-04-17T05:16:01.351Z,28.30
2023-04-17T05:19:58.433Z,28.17
2023-04-17T05:23:58.445Z,28.11
2023-04-17T05:27:58.399Z,28.09
2023-04-17T05:31:58.148Z,28.05
2023-04-17T05:35:58.437Z,27.98
2023-04-17T05:39:58.435Z,27.93
2023-04-17T05:43:57.928Z,28.02
2023-04-17T05:47:57.994Z,29.00
2023-04-17T05:51:57.818Z,29.38
2023-04-17T05:55:57.945Z,29.87
2023-04-17T05:59:57.984Z,30.45
2023-04-17T06:03:58.097Z,31.25
2023-04-17T06:07:57.887Z,31.92
2023-04-17T06:11:58.432Z,32.86
2023-04-17T06:15:58.152Z,33.93
2023-04-17T06:19:58.367Z,33.96
2023-04-17T06:23:58.543Z,33.87
2023-04-17T06:27:58.719Z,34.29
2023-04-17T06:31:58.870Z,34.60
2023-04-17T06:35:59.000Z,35.60
2023-04-17T06:39:59.436Z,36.51
2023-04-17T06:43:59.263Z,36.19
2023-04-17T06:47:59.464Z,36.86
2023-04-17T06:51:59.494Z,29.43
2023-04-17T06:55:59.663Z,28.15
2023-04-17T06:59:59.733Z,30.08
2023-04-17T07:03:59.924Z,31.68
2023-04-17T07:07:59.918Z,32.90
2023-04-17T07:12:00.009Z,33.66
2023-04-17T07:16:00.220Z,34.18
2023-04-17T07:20:00.344Z,34.63
2023-04-17T07:24:00.533Z,35.15
2023-04-17T07:28:01.737Z,35.51
2023-04-17T07:32:00.976Z,36.09
2023-04-17T07:36:01.061Z,36.20
2023-04-17T07:40:01.159Z,36.47
2023-04-17T07:44:01.295Z,36.58
2023-04-17T07:48:01.351Z,37.43
2023-04-17T07:52:01.433Z,33.27
2023-04-17T07:56:01.606Z,33.40
2023-04-17T08:00:01.788Z,34.20
2023-04-17T08:04:02.451Z,34.86
2023-04-17T08:08:02.052Z,35.09
2023-04-17T08:12:02.180Z,35.71
2023-04-17T08:16:02.283Z,36.14
2023-04-17T08:20:02.340Z,36.60
2023-04-17T08:24:02.389Z,36.69
2023-04-17T08:28:02.476Z,36.83
2023-04-17T08:32:13.984Z,36.89
2023-04-17T08:36:04.788Z,37.27
2023-04-17T08:40:02.488Z,37.43
2023-04-17T08:44:02.447Z,35.27
2023-04-17T08:48:02.457Z,33.46
2023-04-17T08:52:02.416Z,32.65
2023-04-17T08:56:03.795Z,32.70
2023-04-17T09:00:02.288Z,33.86
2023-04-17T09:04:02.412Z,34.91
2023-04-17T09:08:02.315Z,36.15
2023-04-17T09:12:02.354Z,37.10
2023-04-17T09:16:02.475Z,38.11
2023-04-17T09:20:02.597Z,38.99
2023-04-17T09:24:02.813Z,39.23
2023-04-17T09:28:02.998Z,39.47
2023-04-17T09:32:03.245Z,29.00
2023-04-17T09:36:03.274Z,28.40
2023-04-17T09:40:03.357Z,31.35
2023-04-17T09:44:03.531Z,32.53
2023-04-17T09:48:03.688Z,33.38
2023-04-17T09:52:03.861Z,32.66
2023-04-17T09:56:03.998Z,32.48
2023-04-17T10:00:04.127Z,32.18
2023-04-17T10:04:04.575Z,31.95
2023-04-17T10:08:04.561Z,31.77
2023-04-17T10:12:04.705Z,31.69
2023-04-17T10:16:04.914Z,31.57
2023-04-17T10:20:05.025Z,31.44
2023-04-17T10:24:05.239Z,31.43
2023-04-17T10:28:05.435Z,31.32
2023-04-17T10:32:05.685Z,31.25
2023-04-17T10:36:05.865Z,31.11
2023-04-17T10:40:06.030Z,31.06
2023-04-17T10:44:06.261Z,31.08
2023-04-17T10:48:06.590Z,30.99
2023-04-17T10:52:06.565Z,30.99
2023-04-17T10:56:06.712Z,30.80
2023-04-17T11:00:06.914Z,30.76
2023-04-17T11:04:07.066Z,30.67
2023-04-17T11:08:07.215Z,30.65
2023-04-17T11:12:07.231Z,30.58
2023-04-17T11:16:07.328Z,30.56
2023-04-17T11:20:07.372Z,30.40
2023-04-17T11:24:07.631Z,30.38
2023-04-17T11:28:07.566Z,30.34
2023-04-17T11:32:08.075Z,30.38
2023-04-17T11:36:07.718Z,30.27
2023-04-17T11:40:07.782Z,29.92
2023-04-17T11:44:07.924Z,30.03
2023-04-17T11:48:07.936Z,29.83
2023-04-17T11:52:07.958Z,29.80
2023-04-17T11:56:08.018Z,29.77
2023-04-17T12:00:08.050Z,29.73
2023-04-17T12:04:08.260Z,29.69
2023-04-17T12:08:08.221Z,29.61
2023-04-17T12:12:08.400Z,29.67
2023-04-17T12:16:08.367Z,29.56
2023-04-17T12:20:08.426Z,29.56
2023-04-17T12:24:08.453Z,29.54
2023-04-17T12:28:08.525Z,29.44
2023-04-17T12:32:08.656Z,29.43
2023-04-17T12:36:08.737Z,29.41
2023-04-17T12:40:08.788Z,29.34
2023-04-17T12:44:08.799Z,29.38
2023-04-17T12:48:08.861Z,29.32
2023-04-17T12:52:08.893Z,29.32
2023-04-17T12:56:08.960Z,29.27
2023-04-17T13:04:28.350Z,29.25
2023-04-17T13:08:27.891Z,29.27
2023-04-17T13:12:27.878Z,29.21
2023-04-17T13:16:27.842Z,29.21
2023-04-17T13:20:27.821Z,29.21
2023-04-17T13:24:27.742Z,29.15
2023-04-17T13:28:27.698Z,29.07
2023-04-17T13:32:27.745Z,29.10
2023-04-17T13:36:27.629Z,29.11
2023-04-17T13:40:27.614Z,29.07
2023-04-17T13:44:27.577Z,28.98
2023-04-17T13:48:27.544Z,29.03
2023-04-17T13:52:27.482Z,28.96
2023-04-17T13:56:27.460Z,28.99
2023-04-17T14:00:27.451Z,28.92
2023-04-17T14:04:27.503Z,28.91
2023-04-17T14:08:27.360Z,28.87
2023-04-17T14:12:27.302Z,28.84
2023-04-17T14:16:27.357Z,28.82
2023-04-17T14:20:27.247Z,28.80
2023-04-17T14:24:27.270Z,28.77
2023-04-17T14:28:27.176Z,28.78
2023-04-17T14:32:27.164Z,28.74
2023-04-17T14:36:27.138Z,28.72
2023-04-17T14:40:27.268Z,28.72
2023-04-17T14:44:27.269Z,28.70
2023-04-17T14:48:36.238Z,28.64
2023-04-17T14:52:28.247Z,28.68
2023-04-17T14:56:27.198Z,28.68
2023-04-17T15:00:27.188Z,28.63
2023-04-17T15:04:27.281Z,28.59
2023-04-17T15:08:27.078Z,28.58
2023-04-17T15:12:27.033Z,28.58
2023-04-17T15:16:27.022Z,28.55
2023-04-17T15:20:26.987Z,28.55
2023-04-17T15:24:26.948Z,28.49
2023-04-17T15:28:27.013Z,28.52
2023-04-17T15:32:26.956Z,28.53
2023-04-17T15:36:26.815Z,28.49
2023-04-17T15:40:26.804Z,28.45
2023-04-17T15:44:26.771Z,28.49
2023-04-17T15:48:26.758Z,28.46
2023-04-17T15:52:26.846Z,28.45
2023-04-17T15:56:26.940Z,28.48
2023-04-17T16:00:26.908Z,28.44
2023-04-17T16:04:27.051Z,28.37
2023-04-17T16:08:27.012Z,28.38
2023-04-17T16:12:27.075Z,28.33
2023-04-17T16:16:27.255Z,28.36
2023-04-17T16:20:27.225Z,28.36
2023-04-17T16:24:27.265Z,28.36
2023-04-17T16:28:27.292Z,28.27
2023-04-17T16:32:27.453Z,28.29
2023-04-17T16:36:27.434Z,27.05
2023-04-17T16:40:27.622Z,26.50
2023-04-17T16:44:27.702Z,26.48
2023-04-17T16:48:27.898Z,26.47
2023-04-17T16:52:27.898Z,26.42
2023-04-17T16:56:27.960Z,26.55
2023-04-17T17:00:28.057Z,26.49
2023-04-17T17:04:28.191Z,26.55
2023-04-17T17:08:28.288Z,26.70
2023-04-17T17:12:28.374Z,26.77
2023-04-17T17:16:28.585Z,26.85
2023-04-17T17:20:28.822Z,26.93
2023-04-17T17:24:28.986Z,26.90
2023-04-17T17:28:29.173Z,26.89
2023-04-17T17:32:29.330Z,27.12
2023-04-17T17:36:29.454Z,27.28
2023-04-17T17:40:29.564Z,27.33
2023-04-17T17:44:29.703Z,27.37
2023-04-17T17:48:29.757Z,27.55
2023-04-17T17:52:29.799Z,27.71
2023-04-17T17:56:29.843Z,27.67
2023-04-17T18:00:29.927Z,27.85
2023-04-17T18:04:30.178Z,27.92
2023-04-17T18:08:30.210Z,27.71
2023-04-17T18:12:30.268Z,27.55
2023-04-17T18:16:30.332Z,27.42
2023-04-17T18:20:30.423Z,27.28
2023-04-17T18:24:30.548Z,27.22
2023-04-17T18:28:30.722Z,27.17
2023-04-17T18:32:30.959Z,27.08
2023-04-17T18:36:31.104Z,27.08
2023-04-17T18:40:31.294Z,26.99
2023-04-17T18:44:31.524Z,27.04
2023-04-17T18:48:31.687Z,27.02
2023-04-17T18:52:31.818Z,27.03
2023-04-17T18:56:31.958Z,27.01
2023-04-17T19:00:32.154Z,27.08
2023-04-17T19:04:32.291Z,27.01
2023-04-17T19:08:32.460Z,27.04
2023-04-17T19:12:32.585Z,27.01
2023-04-17T19:16:32.766Z,26.96
2023-04-17T19:20:33.779Z,26.99
2023-04-17T19:24:32.968Z,26.99
2023-04-17T19:28:33.070Z,26.99
2023-04-17T19:32:33.195Z,26.99
2023-04-17T19:36:33.310Z,27.04
2023-04-17T19:40:33.368Z,27.01
2023-04-17T19:44:33.512Z,27.06
2023-04-17T19:48:33.584Z,27.06
2023-04-17T19:52:33.663Z,27.07
2023-04-17T19:56:33.785Z,27.07
2023-04-17T20:00:33.908Z,27.06
2023-04-17T20:04:34.029Z,27.09
2023-04-17T20:08:34.093Z,27.10
2023-04-17T20:12:34.231Z,27.08
2023-04-17T20:16:34.385Z,27.12
2023-04-17T20:20:36.565Z,27.10
2023-04-17T20:24:34.582Z,27.10
2023-04-17T20:28:34.586Z,27.13
2023-04-17T20:32:34.682Z,27.11
2023-04-17T20:36:34.782Z,27.13
2023-04-17T20:40:34.840Z,27.13
2023-04-17T20:44:34.937Z,27.14
2023-04-17T20:48:35.037Z,27.16
2023-04-17T20:52:35.099Z,27.16
2023-04-17T20:56:35.160Z,27.15
2023-04-17T21:00:35.265Z,27.13
2023-04-17T21:04:35.342Z,27.20
2023-04-17T21:08:35.418Z,27.15
2023-04-17T21:12:35.494Z,27.19
2023-04-17T21:16:35.639Z,27.20
2023-04-17T21:20:35.609Z,27.16
2023-04-17T21:24:35.691Z,27.22
2023-04-17T21:28:35.730Z,27.20
2023-04-17T21:32:35.812Z,27.20
2023-04-17T21:36:35.824Z,27.21
2023-04-17T21:40:36.833Z,27.18
2023-04-17T21:44:35.980Z,27.19
2023-04-17T21:48:36.055Z,27.17
2023-04-17T21:52:36.098Z,27.23
2023-04-17T21:56:36.155Z,27.18
2023-04-17T22:00:36.211Z,27.23
2023-04-17T22:04:36.317Z,27.25
2023-04-17T22:08:36.308Z,27.25
2023-04-17T22:12:36.331Z,27.22
2023-04-17T22:16:36.454Z,27.26
2023-04-17T22:20:36.449Z,27.26
2023-04-17T22:24:36.522Z,27.25
2023-04-17T22:28:36.586Z,27.24
2023-04-17T22:32:36.655Z,27.20
2023-04-17T22:36:36.718Z,27.24
2023-04-17T22:40:36.796Z,27.18
2023-04-17T22:44:36.784Z,27.18
2023-04-17T22:48:36.827Z,27.21
2023-04-17T22:52:36.860Z,27.13
2023-04-17T22:56:36.905Z,27.18
2023-04-17T23:00:36.975Z,27.18
2023-04-17T23:04:37.055Z,27.21
2023-04-17T23:08:37.070Z,27.14
2023-04-17T23:12:37.170Z,27.20
2023-04-17T23:16:37.214Z,27.17
2023-04-17T23:20:37.249Z,27.13
2023-04-17T23:24:37.292Z,27.20
2023-04-17T23:28:37.316Z,27.14
2023-04-17T23:32:37.465Z,27.15
2023-04-17T23:36:37.438Z,27.16
2023-04-17T23:40:37.469Z,27.10
2023-04-17T23:44:37.621Z,27.17
2023-04-17T23:48:37.547Z,27.13
2023-04-17T23:52:37.655Z,27.10
2023-04-17T23:56:37.692Z,27.12
